createdAt,value
2023-12-30T00:01:36.344Z,8.05
2023-12-30T00:04:03.281Z,7.20
2023-12-30T00:06:30.081Z,7.57
2023-12-30T00:08:56.727Z,6.97
2023-12-30T00:11:23.534Z,6.85
2023-12-30T00:13:50.272Z,6.78
2023-12-30T00:16:16.925Z,6.53
2023-12-30T00:18:43.665Z,6.38
2023-12-30T00:21:12.074Z,5.68
2023-12-30T00:23:45.506Z,5.15
2023-12-30T00:26:26.548Z,5.55
2023-12-30T00:28:54.509Z,5.32
2023-12-30T00:31:25.795Z,4.78
2023-12-30T00:33:54.181Z,4.80
2023-12-30T00:36:20.823Z,4.55
2023-12-30T00:38:47.947Z,4.80
2023-12-30T00:41:14.926Z,4.68
2023-12-30T00:43:43.346Z,3.78
2023-12-30T00:46:10.521Z,3.85
2023-12-30T00:48:37.169Z,4.97
2023-12-30T00:51:04.263Z,3.92
2023-12-30T00:53:31.075Z,3.70
2023-12-30T00:55:58.558Z,3.70
2023-12-30T00:58:25.959Z,3.05
2023-12-30T01:00:53.187Z,2.97
2023-12-30T01:03:19.885Z,3.33
2023-12-30T01:05:46.943Z,3.05
2023-12-30T01:08:13.728Z,2.50
2023-12-30T01:10:40.800Z,2.80
2023-12-30T01:13:07.722Z,2.25
2023-12-30T01:15:34.536Z,2.72
2023-12-30T01:18:01.498Z,2.25
2023-12-30T01:20:28.167Z,2.28
2023-12-30T01:22:54.813Z,2.25
2023-12-30T01:25:21.593Z,2.15
2023-12-30T01:27:48.291Z,2.10
2023-12-30T01:30:15.172Z,2.05
2023-12-30T01:32:41.959Z,2.28
2023-12-30T01:35:08.785Z,1.65
2023-12-30T01:37:35.845Z,1.98
2023-12-30T01:40:03.794Z,1.60
2023-12-30T01:42:30.390Z,1.38
2023-12-30T01:44:56.933Z,1.67
2023-12-30T01:47:24.313Z,1.50
2023-12-30T01:49:51.884Z,1.45
2023-12-30T01:52:19.172Z,1.38
2023-12-30T01:54:46.179Z,1.30
2023-12-30T01:57:13.194Z,1.38
2023-12-30T01:59:40.930Z,1.13
2023-12-30T02:02:07.822Z,1.10
2023-12-30T02:04:34.664Z,1.67
2023-12-30T02:07:01.293Z,0.98
2023-12-30T02:09:27.866Z,1.00
2023-12-30T02:11:54.561Z,1.02
2023-12-30T02:14:28.906Z,0.90
2023-12-30T02:16:55.588Z,1.33
2023-12-30T02:19:22.411Z,0.98
2023-12-30T02:21:50.090Z,0.60
2023-12-30T02:24:16.984Z,0.93
2023-12-30T02:26:43.772Z,0.95
2023-12-30T02:29:10.706Z,0.90
2023-12-30T02:31:41.141Z,0.80
2023-12-30T02:34:07.904Z,0.73
2023-12-30T02:36:34.719Z,0.60
2023-12-30T02:39:01.297Z,0.95
2023-12-30T02:41:28.266Z,0.60
2023-12-30T02:44:02.395Z,0.80
2023-12-30T02:46:29.031Z,1.02
2023-12-30T02:48:55.750Z,0.70
2023-12-30T02:51:22.357Z,0.90
2023-12-30T02:53:48.930Z,0.70
2023-12-30T02:56:23.168Z,0.70
2023-12-30T02:58:51.264Z,0.60
2023-12-30T03:01:17.842Z,0.70
2023-12-30T03:03:44.576Z,0.70
2023-12-30T03:06:14.650Z,0.55
2023-12-30T03:08:41.570Z,0.60
2023-12-30T03:11:11.467Z,0.80
2023-12-30T03:13:38.251Z,0.47
2023-12-30T03:16:05.518Z,0.68
2023-12-30T03:18:32.502Z,0.55
2023-12-30T03:20:59.807Z,0.60
2023-12-30T03:23:26.461Z,0.57
2023-12-30T03:25:53.157Z,0.55
2023-12-30T03:28:19.862Z,0.63
2023-12-30T03:30:46.939Z,0.30
2023-12-30T03:33:13.776Z,0.50
2023-12-30T03:35:40.493Z,0.70
2023-12-30T03:38:07.071Z,0.68
2023-12-30T03:40:33.754Z,0.40
2023-12-30T03:43:00.684Z,0.50
2023-12-30T03:45:27.565Z,0.50
2023-12-30T03:47:54.299Z,1.33
2023-12-30T03:50:22.020Z,0.55
2023-12-30T03:52:48.715Z,0.50
2023-12-30T03:55:15.428Z,0.43
2023-12-30T03:57:41.966Z,0.50
2023-12-30T04:00:09.015Z,0.52
2023-12-30T04:02:35.822Z,0.55
2023-12-30T04:05:02.417Z,0.50
2023-12-30T04:07:29.132Z,0.45
2023-12-30T04:09:55.842Z,0.52
2023-12-30T04:12:22.469Z,0.40
2023-12-30T04:14:49.123Z,0.38
2023-12-30T04:17:15.656Z,0.50
2023-12-30T04:19:42.233Z,0.60
2023-12-30T04:22:08.937Z,0.57
2023-12-30T04:24:35.565Z,0.65
2023-12-30T04:27:02.115Z,0.60
2023-12-30T04:29:30.067Z,0.40
2023-12-30T04:31:56.698Z,0.30
2023-12-30T04:34:23.912Z,0.30
2023-12-30T04:36:50.647Z,0.40
2023-12-30T04:39:17.251Z,0.50
2023-12-30T04:41:43.885Z,0.40
2023-12-30T04:44:10.439Z,0.52
2023-12-30T04:46:37.473Z,0.38
2023-12-30T04:49:05.071Z,0.40
2023-12-30T04:51:31.750Z,0.57
2023-12-30T04:53:58.404Z,0.40
2023-12-30T04:56:24.978Z,0.73
2023-12-30T04:58:52.216Z,0.30
2023-12-30T05:01:18.948Z,0.40
2023-12-30T05:03:45.649Z,0.30
2023-12-30T05:06:22.783Z,0.40
2023-12-30T05:11:16.550Z,0.30
2023-12-30T05:13:44.089Z,0.40
2023-12-30T05:16:10.923Z,0.47
2023-12-30T05:18:37.532Z,0.40
2023-12-30T05:21:05.084Z,0.63
2023-12-30T05:23:34.717Z,0.40
2023-12-30T05:26:01.302Z,0.45
2023-12-30T05:28:27.876Z,0.47
2023-12-30T05:30:54.592Z,0.35
2023-12-30T05:33:21.290Z,0.40
2023-12-30T05:35:47.898Z,0.25
2023-12-30T05:38:14.689Z,0.50
2023-12-30T05:40:41.295Z,0.52
2023-12-30T05:43:08.002Z,0.40
2023-12-30T05:45:35.405Z,0.30
2023-12-30T05:48:03.437Z,0.35
2023-12-30T05:50:30.127Z,0.38
2023-12-30T05:52:57.484Z,0.60
2023-12-30T05:55:24.085Z,0.30
2023-12-30T05:57:50.762Z,0.43
2023-12-30T06:00:20.341Z,0.43
2023-12-30T06:02:47.187Z,0.40
2023-12-30T06:05:13.756Z,0.35
2023-12-30T06:07:40.393Z,0.40
2023-12-30T06:10:08.383Z,0.43
2023-12-30T06:12:35.623Z,0.40
2023-12-30T06:15:02.165Z,0.63
2023-12-30T06:17:28.825Z,0.32
2023-12-30T06:19:55.429Z,0.40
2023-12-30T06:22:22.026Z,0.52
2023-12-30T06:24:48.644Z,0.40
2023-12-30T06:27:15.226Z,0.40
2023-12-30T06:29:41.909Z,0.30
2023-12-30T06:32:08.638Z,0.40
2023-12-30T06:34:35.988Z,0.70
2023-12-30T06:37:02.692Z,0.28
2023-12-30T06:39:29.347Z,0.40
2023-12-30T06:42:01.494Z,0.20
2023-12-30T06:44:28.535Z,0.40
2023-12-30T06:46:55.198Z,0.88
2023-12-30T06:49:21.922Z,0.40
2023-12-30T06:51:48.694Z,0.30
2023-12-30T06:54:15.498Z,0.40
2023-12-30T06:56:42.127Z,0.73
2023-12-30T06:59:08.721Z,0.40
2023-12-30T07:01:38.763Z,0.40
2023-12-30T07:04:05.450Z,0.30
2023-12-30T07:06:32.259Z,0.40
2023-12-30T07:08:58.886Z,0.50
2023-12-30T07:11:25.519Z,0.40
2023-12-30T07:13:52.970Z,0.47
2023-12-30T07:16:20.105Z,0.50
2023-12-30T07:18:46.780Z,0.40
2023-12-30T07:21:13.362Z,0.43
2023-12-30T07:23:39.990Z,1.13
2023-12-30T07:26:06.634Z,0.20
2023-12-30T07:28:33.321Z,0.50
2023-12-30T07:30:59.990Z,0.50
2023-12-30T07:33:26.721Z,0.35
2023-12-30T07:35:54.596Z,0.20
2023-12-30T07:38:21.509Z,0.40
2023-12-30T07:40:48.192Z,0.57
2023-12-30T07:43:14.771Z,0.40
2023-12-30T07:45:41.445Z,0.30
2023-12-30T07:48:08.209Z,0.38
2023-12-30T07:50:35.492Z,0.40
2023-12-30T07:53:02.216Z,0.32
2023-12-30T07:55:28.998Z,0.40
2023-12-30T07:57:55.699Z,0.30
2023-12-30T08:00:22.611Z,0.25
2023-12-30T08:02:49.204Z,0.52
2023-12-30T08:05:15.981Z,0.20
2023-12-30T08:07:42.721Z,0.40
2023-12-30T08:10:09.495Z,0.43
2023-12-30T08:12:37.880Z,0.70
2023-12-30T08:15:05.707Z,0.30
2023-12-30T08:17:32.392Z,0.43
2023-12-30T08:19:59.113Z,0.40
2023-12-30T08:22:25.704Z,0.38
2023-12-30T08:24:52.493Z,0.70
2023-12-30T08:27:19.270Z,0.57
2023-12-30T08:29:45.833Z,0.57
2023-12-30T08:32:12.524Z,0.50
2023-12-30T08:34:39.132Z,0.43
2023-12-30T08:37:09.823Z,0.30
2023-12-30T08:39:39.895Z,0.45
2023-12-30T08:42:07.848Z,0.32
2023-12-30T08:44:39.033Z,0.40
2023-12-30T08:47:05.977Z,0.40
2023-12-30T08:49:33.136Z,0.20
2023-12-30T08:52:00.356Z,0.30
2023-12-30T08:54:27.031Z,0.20
2023-12-30T08:56:55.161Z,0.30
2023-12-30T08:59:23.250Z,0.30
2023-12-30T09:01:49.891Z,0.38
2023-12-30T09:04:16.704Z,0.52
2023-12-30T09:06:43.316Z,0.50
2023-12-30T09:09:10.054Z,0.30
2023-12-30T09:11:39.927Z,0.40
2023-12-30T09:14:06.737Z,0.45
2023-12-30T09:16:33.828Z,0.40
2023-12-30T09:19:00.652Z,0.35
2023-12-30T09:21:27.373Z,0.40
2023-12-30T09:23:53.953Z,0.28
2023-12-30T09:26:20.557Z,0.50
2023-12-30T09:28:47.185Z,0.60
2023-12-30T09:31:14.304Z,0.50
2023-12-30T09:33:41.272Z,0.50
2023-12-30T09:36:09.037Z,0.47
2023-12-30T09:38:35.655Z,0.60
2023-12-30T09:41:02.231Z,0.47
2023-12-30T09:43:29.600Z,0.60
2023-12-30T09:45:58.175Z,0.60
2023-12-30T09:48:27.167Z,0.30
2023-12-30T09:50:58.331Z,0.50
2023-12-30T09:53:26.219Z,0.40
2023-12-30T09:55:54.488Z,0.35
2023-12-30T09:58:22.519Z,0.52
2023-12-30T10:00:49.693Z,0.40
2023-12-30T10:03:19.676Z,0.40
2023-12-30T10:05:46.554Z,0.40
2023-12-30T10:08:13.750Z,0.57
2023-12-30T10:10:50.358Z,0.50
2023-12-30T10:13:27.245Z,0.30
2023-12-30T10:15:58.815Z,0.50
2023-12-30T10:18:27.064Z,0.30
2023-12-30T10:20:53.797Z,0.82
2023-12-30T10:23:20.377Z,0.40
2023-12-30T10:25:50.126Z,0.55
2023-12-30T10:28:17.719Z,0.50
2023-12-30T10:30:44.401Z,0.35
2023-12-30T10:33:13.410Z,0.50
2023-12-30T10:35:41.595Z,0.30
2023-12-30T10:38:13.492Z,0.30
2023-12-30T10:40:41.008Z,0.50
2023-12-30T10:43:09.504Z,0.40
2023-12-30T10:45:36.729Z,0.68
2023-12-30T10:48:07.095Z,0.50
2023-12-30T10:50:37.804Z,0.43
2023-12-30T10:53:09.410Z,0.40
2023-12-30T10:55:38.874Z,0.40
2023-12-30T10:58:19.279Z,0.35
2023-12-30T11:00:49.957Z,0.40
2023-12-30T11:03:16.745Z,0.47
2023-12-30T11:06:07.093Z,0.50
2023-12-30T11:08:34.492Z,0.50
2023-12-30T11:11:05.886Z,0.57
2023-12-30T11:13:36.570Z,0.43
2023-12-30T11:16:15.187Z,0.25
2023-12-30T11:18:57.243Z,0.60
2023-12-30T11:21:40.003Z,0.40
2023-12-30T11:24:08.923Z,0.50
2023-12-30T11:26:46.195Z,0.60
2023-12-30T11:29:21.521Z,0.43
2023-12-30T11:31:49.729Z,0.30
2023-12-30T11:34:16.955Z,0.77
2023-12-30T11:36:44.500Z,0.60
2023-12-30T11:39:34.448Z,0.70
2023-12-30T11:42:02.294Z,0.32
2023-12-30T11:44:29.389Z,1.05
2023-12-30T11:46:56.261Z,0.65
2023-12-30T11:49:24.826Z,0.45
2023-12-30T11:51:52.055Z,0.50
2023-12-30T11:54:19.275Z,0.70
2023-12-30T11:56:46.789Z,0.60
2023-12-30T11:59:13.615Z,0.60
2023-12-30T12:01:41.191Z,0.57
2023-12-30T12:04:09.611Z,0.40
2023-12-30T12:06:37.372Z,0.60
2023-12-30T12:09:05.391Z,0.73
2023-12-30T12:11:32.087Z,0.52
2023-12-30T12:13:59.176Z,0.50
2023-12-30T12:16:27.694Z,0.70
2023-12-30T12:18:55.790Z,0.50
2023-12-30T12:21:22.576Z,0.43
2023-12-30T12:23:49.230Z,0.60
2023-12-30T12:26:17.534Z,0.43
2023-12-30T12:28:44.146Z,0.38
2023-12-30T12:31:14.209Z,0.80
2023-12-30T12:33:40.951Z,0.55
2023-12-30T12:36:07.853Z,0.60
2023-12-30T12:38:34.674Z,0.60
2023-12-30T12:41:01.275Z,0.50
2023-12-30T12:43:27.898Z,0.90
2023-12-30T12:45:54.908Z,1.33
2023-12-30T12:48:21.704Z,0.60
2023-12-30T12:50:48.494Z,0.50
2023-12-30T12:53:15.133Z,0.65
2023-12-30T12:55:42.071Z,0.60
2023-12-30T12:58:08.791Z,0.55
2023-12-30T13:00:36.236Z,0.65
2023-12-30T13:03:03.173Z,0.68
2023-12-30T13:05:29.936Z,0.80
2023-12-30T13:07:57.411Z,0.82
2023-12-30T13:10:33.087Z,0.73
2023-12-30T13:13:00.008Z,0.95
2023-12-30T13:15:26.879Z,0.70
2023-12-30T13:17:55.114Z,1.25
2023-12-30T13:20:21.966Z,0.95
2023-12-30T13:22:55.784Z,0.60
2023-12-30T13:25:22.462Z,1.10
2023-12-30T13:27:49.213Z,0.70
2023-12-30T13:30:19.165Z,1.30
2023-12-30T13:32:45.867Z,0.68
2023-12-30T13:35:12.848Z,0.50
2023-12-30T13:37:41.734Z,0.80
2023-12-30T13:40:13.328Z,0.98
2023-12-30T13:42:41.754Z,0.65
2023-12-30T13:45:11.056Z,0.75
2023-12-30T13:47:40.216Z,0.65
2023-12-30T13:50:25.957Z,0.73
2023-12-30T13:52:54.964Z,0.63
2023-12-30T13:55:22.832Z,0.70
2023-12-30T13:57:53.962Z,0.80
2023-12-30T14:00:21.541Z,0.65
2023-12-30T14:02:53.964Z,1.02
2023-12-30T14:05:30.366Z,0.60
2023-12-30T14:08:10.068Z,0.70
2023-12-30T14:10:36.809Z,0.73
2023-12-30T14:13:03.997Z,0.90
2023-12-30T14:15:30.753Z,0.65
2023-12-30T14:17:57.607Z,1.02
2023-12-30T14:20:24.363Z,0.63
2023-12-30T14:22:51.031Z,0.50
2023-12-30T14:25:17.623Z,0.60
2023-12-30T14:27:44.951Z,1.10
2023-12-30T14:30:13.105Z,0.73
2023-12-30T14:32:42.734Z,0.82
2023-12-30T14:35:10.672Z,0.93
2023-12-30T14:37:40.445Z,1.02
2023-12-30T14:40:08.273Z,0.63
2023-12-30T14:42:36.143Z,1.38
2023-12-30T14:45:04.451Z,0.70
2023-12-30T14:47:31.917Z,0.80
2023-12-30T14:49:58.525Z,0.90
2023-12-30T14:52:25.199Z,0.60
2023-12-30T14:55:01.046Z,0.73
2023-12-30T14:57:29.169Z,0.70
2023-12-30T14:59:55.714Z,1.00
2023-12-30T15:02:22.269Z,0.80
2023-12-30T15:04:48.856Z,0.80
2023-12-30T15:07:15.722Z,0.63
2023-12-30T15:09:42.512Z,0.80
2023-12-30T15:12:09.816Z,0.73
2023-12-30T15:14:36.391Z,0.70
2023-12-30T15:17:03.251Z,0.80
2023-12-30T15:19:29.901Z,0.65
2023-12-30T15:21:56.578Z,0.65
2023-12-30T15:24:24.401Z,0.80
2023-12-30T15:26:52.080Z,0.77
2023-12-30T15:29:19.718Z,0.63
2023-12-30T15:31:46.342Z,0.88
2023-12-30T15:34:13.294Z,0.90
2023-12-30T15:36:40.061Z,0.90
2023-12-30T15:39:07.602Z,0.73
2023-12-30T15:41:34.212Z,0.90
2023-12-30T15:44:00.954Z,0.70
2023-12-30T15:46:27.543Z,0.82
2023-12-30T15:48:54.308Z,0.85
2023-12-30T15:51:21.289Z,0.82
2023-12-30T15:53:48.374Z,1.00
2023-12-30T15:56:14.951Z,1.40
2023-12-30T15:58:41.818Z,1.00
2023-12-30T16:01:08.637Z,1.13
2023-12-30T16:03:36.230Z,1.35
2023-12-30T16:06:03.012Z,1.40
2023-12-30T16:08:29.721Z,1.23
2023-12-30T16:10:56.687Z,1.33
2023-12-30T16:13:23.313Z,1.45
2023-12-30T16:15:53.650Z,1.55
2023-12-30T16:18:20.885Z,1.80
2023-12-30T16:20:47.640Z,1.40
2023-12-30T16:23:14.291Z,2.03
2023-12-30T16:25:41.389Z,1.80
2023-12-30T16:28:08.074Z,2.28
2023-12-30T16:30:34.719Z,1.85
2023-12-30T16:33:01.750Z,1.80
2023-12-30T16:35:28.997Z,2.47
2023-12-30T16:37:55.689Z,2.33
2023-12-30T16:40:22.966Z,2.08
2023-12-30T16:42:49.550Z,2.30
2023-12-30T16:45:16.135Z,2.13
2023-12-30T16:47:42.899Z,2.15
2023-12-30T16:50:09.801Z,1.98
2023-12-30T16:52:37.407Z,1.90
2023-12-30T16:55:04.618Z,2.08
2023-12-30T16:57:31.244Z,2.10
2023-12-30T16:59:57.821Z,2.28
2023-12-30T17:02:24.630Z,1.75
2023-12-30T17:04:51.425Z,2.55
2023-12-30T17:07:18.035Z,1.80
2023-12-30T17:09:44.636Z,2.50
2023-12-30T17:12:11.519Z,2.30
2023-12-30T17:14:38.084Z,2.63
2023-12-30T17:17:04.863Z,2.60
2023-12-30T17:19:32.914Z,2.80
2023-12-30T17:21:59.998Z,2.85
2023-12-30T17:24:26.610Z,2.75
2023-12-30T17:26:53.347Z,2.90
2023-12-30T17:29:19.927Z,2.35
2023-12-30T17:31:46.549Z,2.42
2023-12-30T17:34:13.261Z,2.80
2023-12-30T17:36:40.277Z,3.05
2023-12-30T17:39:07.735Z,2.88
2023-12-30T17:41:34.643Z,2.83
2023-12-30T17:44:04.936Z,2.83
2023-12-30T17:48:58.694Z,2.67
2023-12-30T17:51:26.645Z,2.90
2023-12-30T17:53:53.205Z,2.40
2023-12-30T17:56:20.398Z,2.80
2023-12-30T17:58:47.070Z,2.50
2023-12-30T18:01:13.825Z,3.17
2023-12-30T18:03:40.998Z,3.03
2023-12-30T18:06:07.904Z,2.90
2023-12-30T18:08:34.500Z,3.20
2023-12-30T18:11:01.107Z,2.85
2023-12-30T18:13:28.167Z,2.80
2023-12-30T18:15:54.942Z,3.17
2023-12-30T18:18:21.817Z,2.53
2023-12-30T18:20:49.679Z,2.42
2023-12-30T18:23:16.312Z,2.58
2023-12-30T18:25:42.950Z,3.10
2023-12-30T18:28:09.531Z,2.50
2023-12-30T18:30:36.270Z,2.17
2023-12-30T18:33:03.231Z,2.33
2023-12-30T18:35:30.091Z,2.30
2023-12-30T18:37:56.650Z,2.90
2023-12-30T18:40:24.095Z,2.50
2023-12-30T18:42:50.702Z,2.17
2023-12-30T18:45:17.352Z,2.63
2023-12-30T18:47:44.413Z,2.97
2023-12-30T18:50:13.223Z,2.72
2023-12-30T18:52:39.866Z,2.15
2023-12-30T18:55:06.932Z,2.38
2023-12-30T18:57:33.545Z,2.47
2023-12-30T19:00:00.254Z,2.13
2023-12-30T19:02:27.074Z,2.70
2023-12-30T19:04:54.325Z,2.05
2023-12-30T19:07:20.976Z,2.33
2023-12-30T19:09:47.851Z,2.10
2023-12-30T19:12:14.719Z,1.90
2023-12-30T19:14:41.254Z,2.15
2023-12-30T19:17:10.007Z,1.83
2023-12-30T19:19:37.597Z,1.90
2023-12-30T19:22:06.084Z,2.35
2023-12-30T19:24:35.630Z,2.08
2023-12-30T19:29:30.706Z,2.15
2023-12-30T19:31:57.264Z,2.10
2023-12-30T19:34:26.090Z,2.40
2023-12-30T19:36:53.358Z,2.10
2023-12-30T19:39:20.021Z,2.20
2023-12-30T19:41:47.721Z,2.03
2023-12-30T19:44:14.473Z,2.75
2023-12-30T19:46:41.458Z,2.33
2023-12-30T19:49:08.370Z,2.35
2023-12-30T19:51:35.314Z,2.13
2023-12-30T19:54:01.871Z,2.10
2023-12-30T19:56:29.240Z,2.30
2023-12-30T19:58:55.890Z,2.40
2023-12-30T20:01:22.718Z,2.03
2023-12-30T20:03:50.065Z,2.10
2023-12-30T20:06:17.141Z,2.00
2023-12-30T20:08:43.821Z,2.17
2023-12-30T20:11:10.669Z,1.80
2023-12-30T20:13:38.925Z,2.05
2023-12-30T20:16:08.403Z,2.35
2023-12-30T20:18:35.816Z,1.95
2023-12-30T20:21:05.929Z,1.98
2023-12-30T20:23:34.627Z,1.85
2023-12-30T20:26:01.883Z,1.88
2023-12-30T20:28:28.681Z,1.90
2023-12-30T20:30:55.365Z,1.80
2023-12-30T20:33:22.311Z,2.10
2023-12-30T20:35:48.890Z,1.80
2023-12-30T20:38:15.599Z,1.75
2023-12-30T20:40:45.981Z,1.63
2023-12-30T20:43:13.575Z,1.77
2023-12-30T20:45:44.464Z,1.52
2023-12-30T20:50:38.430Z,1.55
2023-12-30T20:53:06.686Z,1.35
2023-12-30T20:55:33.572Z,1.63
2023-12-30T20:58:00.410Z,1.60
2023-12-30T21:00:27.043Z,1.73
2023-12-30T21:02:53.678Z,1.73
2023-12-30T21:05:20.535Z,1.45
2023-12-30T21:07:47.229Z,2.13
2023-12-30T21:10:14.949Z,1.83
2023-12-30T21:12:41.526Z,1.70
2023-12-30T21:15:10.623Z,2.10
2023-12-30T21:17:38.447Z,1.92
2023-12-30T21:20:06.372Z,1.50
2023-12-30T21:22:33.001Z,1.55
2023-12-30T21:25:01.260Z,1.63
2023-12-30T21:27:29.904Z,1.40
2023-12-30T21:29:57.107Z,1.70
2023-12-30T21:32:24.690Z,1.98
2023-12-30T21:34:51.590Z,1.55
2023-12-30T21:37:18.232Z,1.95
2023-12-30T21:39:44.858Z,1.38
2023-12-30T21:42:11.445Z,1.42
2023-12-30T21:44:41.680Z,1.50
2023-12-30T21:47:08.271Z,1.75
2023-12-30T21:49:38.493Z,1.70
2023-12-30T21:52:05.246Z,1.27
2023-12-30T21:54:31.823Z,1.65
2023-12-30T21:56:58.406Z,1.88
2023-12-30T21:59:24.930Z,1.30
2023-12-30T22:01:51.538Z,1.40
2023-12-30T22:04:18.208Z,1.17
2023-12-30T22:06:44.793Z,2.00
2023-12-30T22:09:11.621Z,1.17
2023-12-30T22:11:38.159Z,1.20
2023-12-30T22:14:04.715Z,1.25
2023-12-30T22:16:31.315Z,1.10
2023-12-30T22:18:57.967Z,1.23
2023-12-30T22:21:24.703Z,1.10
2023-12-30T22:23:51.309Z,0.90
2023-12-30T22:26:18.756Z,1.30
2023-12-30T22:28:45.401Z,1.02
2023-12-30T22:31:12.132Z,1.33
2023-12-30T22:33:38.911Z,0.90
2023-12-30T22:36:05.740Z,0.80
2023-12-30T22:38:34.335Z,0.75
2023-12-30T22:41:01.022Z,1.10
2023-12-30T22:43:30.190Z,1.50
2023-12-30T22:45:57.569Z,1.00
2023-12-30T22:48:24.127Z,1.10
2023-12-30T22:50:50.837Z,1.00
2023-12-30T22:53:17.645Z,1.10
2023-12-30T22:55:44.406Z,0.93
2023-12-30T22:58:11.384Z,0.90
2023-12-30T23:00:40.611Z,1.13
2023-12-30T23:03:07.573Z,0.80
2023-12-30T23:05:34.501Z,0.80
2023-12-30T23:08:01.168Z,1.05
2023-12-30T23:10:28.692Z,1.10
2023-12-30T23:12:57.469Z,0.85
2023-12-30T23:15:24.226Z,0.80
2023-12-30T23:17:51.119Z,0.98
2023-12-30T23:20:18.002Z,0.90
2023-12-30T23:22:44.627Z,0.80
2023-12-30T23:25:11.433Z,0.88
2023-12-30T23:27:38.122Z,0.82
2023-12-30T23:30:05.265Z,0.90
2023-12-30T23:32:34.807Z,0.90
2023-12-30T23:35:04.508Z,0.90
2023-12-30T23:37:32.402Z,1.00
2023-12-30T23:40:00.346Z,0.85
2023-12-30T23:42:27.661Z,0.90
2023-12-30T23:44:54.855Z,0.88
2023-12-30T23:47:21.526Z,1.20
2023-12-30T23:49:48.102Z,0.90
2023-12-30T23:52:14.714Z,0.90
2023-12-30T23:54:41.263Z,1.00
2023-12-30T23:57:07.877Z,1.08
2023-12-30T23:59:34.595Z,1.10
